Terminal Aerodrome Forecast
Issued by NWS

Current Version | Previous Version | Text Only | Print | Product List | Glossary On
Versions: 1 2 3 4 5 6 7 8 9 10 11 12 13
456
FTUS45 KPIH 241120
TAFSUN
TAF
KSUN 241120Z 2412/2512 31010KT P6SM SCT150
     FM241800 15008KT P6SM VCTS SCT040CB BKN100
     FM250300 31008KT P6SM -RA BKN040 OVC100
      AMD LTD TO CLD VIS AND WIND TIL 241400=

USA.gov is the U.S. government's official web portal to all federal, state and local government web resources and services.